createdAt,value
2019-05-11T00:00:34.407Z,26.90
2019-05-11T00:01:34.384Z,25.80
2019-05-11T00:02:34.364Z,27.40
2019-05-11T00:03:34.344Z,27.60
2019-05-11T00:04:34.320Z,28.40
2019-05-11T00:05:34.299Z,27.60
2019-05-11T00:06:34.276Z,28.70
2019-05-11T00:07:34.255Z,28.90
2019-05-11T00:08:34.236Z,29.30
2019-05-11T00:09:34.213Z,28.40
2019-05-11T00:10:34.192Z,29.00
2019-05-11T00:11:34.180Z,29.60
2019-05-11T00:12:34.148Z,28.70
2019-05-11T00:13:34.128Z,25.90
2019-05-11T00:14:34.109Z,27.10
2019-05-11T00:15:34.086Z,25.80
2019-05-11T00:16:34.063Z,28.20
2019-05-11T00:17:34.045Z,27.20
2019-05-11T00:18:34.019Z,28.10
2019-05-11T00:19:33.998Z,28.70
2019-05-11T00:20:33.998Z,28.60
2019-05-11T00:21:33.965Z,28.50
2019-05-11T00:22:33.940Z,28.90
2019-05-11T00:23:33.918Z,27.60
2019-05-11T00:24:33.902Z,28.40
2019-05-11T00:25:33.874Z,29.50
2019-05-11T00:26:33.851Z,27.20
2019-05-11T00:27:33.858Z,29.30
2019-05-11T00:28:33.806Z,28.20
2019-05-11T00:29:33.788Z,27.80
2019-05-11T00:30:33.765Z,29.10
2019-05-11T00:31:33.747Z,27.30
2019-05-11T00:32:33.725Z,27.40
2019-05-11T00:33:33.701Z,28.60
2019-05-11T00:34:33.681Z,27.50
2019-05-11T00:35:33.661Z,28.60
2019-05-11T00:36:33.686Z,27.80
2019-05-11T00:37:33.618Z,29.10
2019-05-11T00:38:33.601Z,29.10
2019-05-11T00:39:33.573Z,29.40
2019-05-11T00:40:33.555Z,28.90
2019-05-11T00:41:33.540Z,28.00
2019-05-11T00:42:33.517Z,29.20
2019-05-11T00:43:33.487Z,28.80
2019-05-11T00:44:33.474Z,30.50
2019-05-11T00:45:33.445Z,29.90
2019-05-11T00:46:33.424Z,31.90
2019-05-11T00:47:33.405Z,30.30
2019-05-11T00:48:33.392Z,32.60
2019-05-11T00:49:33.360Z,31.30
2019-05-11T00:50:39.358Z,28.30
2019-05-11T00:51:33.317Z,29.70
2019-05-11T00:52:33.296Z,29.10
2019-05-11T00:53:33.314Z,28.30
2019-05-11T00:54:33.253Z,29.90
2019-05-11T00:55:33.231Z,29.00
2019-05-11T00:56:33.225Z,29.40
2019-05-11T00:57:33.190Z,29.40
2019-05-11T00:58:33.167Z,30.20
2019-05-11T00:59:33.156Z,31.40
2019-05-11T01:00:33.126Z,31.50
2019-05-11T01:01:33.105Z,32.50
2019-05-11T01:02:33.081Z,31.20
2019-05-11T01:03:33.061Z,32.50
2019-05-11T01:04:33.050Z,32.60
2019-05-11T01:05:33.030Z,32.20
2019-05-11T01:06:33.000Z,31.80
2019-05-11T01:07:32.976Z,30.80
2019-05-11T01:08:32.953Z,31.30
2019-05-11T01:09:32.940Z,31.80
2019-05-11T01:10:41.790Z,32.70
2019-05-11T01:11:32.887Z,33.00
2019-05-11T01:12:32.870Z,30.90
2019-05-11T01:13:32.862Z,30.20
2019-05-11T01:14:32.827Z,29.80
2019-05-11T01:15:32.801Z,30.10
2019-05-11T01:16:32.782Z,29.10
2019-05-11T01:17:32.766Z,31.40
2019-05-11T01:18:32.738Z,32.30
2019-05-11T01:19:32.717Z,33.00
2019-05-11T01:20:32.702Z,34.70
2019-05-11T01:21:32.675Z,32.80
2019-05-11T01:22:32.653Z,33.60
2019-05-11T01:23:32.633Z,35.50
2019-05-11T01:24:32.611Z,36.60
2019-05-11T01:25:32.589Z,36.50
2019-05-11T01:26:32.571Z,34.20
2019-05-11T01:27:32.546Z,35.80
2019-05-11T01:28:32.529Z,36.70
2019-05-11T01:29:32.509Z,32.60
2019-05-11T01:30:32.481Z,34.50
2019-05-11T01:31:32.462Z,35.10
2019-05-11T01:32:32.447Z,34.10
2019-05-11T01:33:32.420Z,33.90
2019-05-11T01:34:32.397Z,33.00
2019-05-11T01:35:32.376Z,32.00
2019-05-11T01:36:32.360Z,31.90
2019-05-11T01:37:32.333Z,33.00
2019-05-11T01:38:32.309Z,33.60
2019-05-11T01:39:32.290Z,33.70
2019-05-11T01:40:32.266Z,33.80
2019-05-11T01:41:32.244Z,32.50
2019-05-11T01:42:32.228Z,33.20
2019-05-11T01:43:32.202Z,33.20
2019-05-11T01:44:32.188Z,33.40
2019-05-11T01:45:32.171Z,35.50
2019-05-11T01:46:32.144Z,34.40
2019-05-11T01:47:32.115Z,34.70
2019-05-11T01:48:32.095Z,35.60
2019-05-11T01:49:32.073Z,34.50
2019-05-11T01:50:32.051Z,36.90
2019-05-11T01:51:32.029Z,34.60
2019-05-11T01:52:32.010Z,35.60
2019-05-11T01:53:31.988Z,36.20
2019-05-11T01:54:31.979Z,35.30
2019-05-11T01:55:31.944Z,39.20
2019-05-11T01:56:31.920Z,36.80
2019-05-11T01:57:31.907Z,40.50
2019-05-11T01:58:31.885Z,41.00
2019-05-11T01:59:31.858Z,44.10
2019-05-11T02:00:31.836Z,44.20
2019-05-11T02:01:31.814Z,44.70
2019-05-11T02:02:31.792Z,45.00
2019-05-11T02:03:31.770Z,44.30
2019-05-11T02:04:31.752Z,45.00
2019-05-11T02:05:31.728Z,45.00
2019-05-11T02:06:31.707Z,45.90
2019-05-11T02:07:31.689Z,46.10
2019-05-11T02:08:31.667Z,46.50
2019-05-11T02:09:31.641Z,46.30
2019-05-11T02:10:31.620Z,47.10
2019-05-11T02:11:31.599Z,48.00
2019-05-11T02:12:31.586Z,46.50
2019-05-11T02:13:31.558Z,45.40
2019-05-11T02:14:31.533Z,46.00
2019-05-11T02:15:31.515Z,47.30
2019-05-11T02:16:31.498Z,46.30
2019-05-11T02:17:31.470Z,45.40
2019-05-11T02:18:31.450Z,47.70
2019-05-11T02:19:31.425Z,45.80
2019-05-11T02:20:31.405Z,45.90
2019-05-11T02:21:31.383Z,45.10
2019-05-11T02:22:31.361Z,44.60
2019-05-11T02:23:31.341Z,42.50
2019-05-11T02:24:31.320Z,42.40
2019-05-11T02:25:31.298Z,44.50
2019-05-11T02:26:31.280Z,44.40
2019-05-11T02:27:31.256Z,43.00
2019-05-11T02:28:31.235Z,42.90
2019-05-11T02:29:31.214Z,43.80
2019-05-11T02:30:31.191Z,44.90
2019-05-11T02:31:31.171Z,44.80
2019-05-11T02:32:31.147Z,44.60
2019-05-11T02:33:31.127Z,44.30
2019-05-11T02:34:31.104Z,43.40
2019-05-11T02:35:31.085Z,44.30
2019-05-11T02:36:31.062Z,43.20
2019-05-11T02:37:31.043Z,45.10
2019-05-11T02:38:31.019Z,44.60
2019-05-11T02:39:30.999Z,46.00
2019-05-11T02:40:30.974Z,45.50
2019-05-11T02:41:36.344Z,47.40
2019-05-11T02:42:30.934Z,47.90
2019-05-11T02:43:30.913Z,46.30
2019-05-11T02:44:30.888Z,47.70
2019-05-11T02:45:30.866Z,47.00
2019-05-11T02:46:30.843Z,47.00
2019-05-11T02:47:30.825Z,47.10
2019-05-11T02:48:30.902Z,48.10
2019-05-11T02:49:30.788Z,46.80
2019-05-11T02:50:30.793Z,47.90
2019-05-11T02:51:30.738Z,47.30
2019-05-11T02:52:30.726Z,48.40
2019-05-11T02:53:30.698Z,46.30
2019-05-11T02:54:30.669Z,46.30
2019-05-11T02:55:30.653Z,48.20
2019-05-11T02:56:30.625Z,44.90
2019-05-11T02:57:30.613Z,46.90
2019-05-11T02:58:30.581Z,46.50
2019-05-11T02:59:30.564Z,47.30
2019-05-11T03:00:30.536Z,46.80
2019-05-11T03:01:30.515Z,48.40
2019-05-11T03:02:30.494Z,46.80
2019-05-11T03:03:30.484Z,47.40
2019-05-11T03:04:30.463Z,44.80
2019-05-11T03:05:30.435Z,46.00
2019-05-11T03:06:30.406Z,45.40
2019-05-11T03:07:30.388Z,43.50
2019-05-11T03:08:30.364Z,42.00
2019-05-11T03:09:30.341Z,39.80
2019-05-11T03:10:30.327Z,41.30
2019-05-11T03:11:30.297Z,40.20
2019-05-11T03:12:30.277Z,40.10
2019-05-11T03:13:30.261Z,37.10
2019-05-11T03:14:30.232Z,38.20
2019-05-11T03:15:30.214Z,37.60
2019-05-11T03:16:30.188Z,39.20
2019-05-11T03:17:30.176Z,37.80
2019-05-11T03:18:30.147Z,37.50
2019-05-11T03:19:30.133Z,37.40
2019-05-11T03:20:30.098Z,37.00
2019-05-11T03:21:30.076Z,34.60
2019-05-11T03:22:30.056Z,34.60
2019-05-11T03:23:30.038Z,34.00
2019-05-11T03:24:30.012Z,34.90
2019-05-11T03:25:29.995Z,32.70
2019-05-11T03:26:29.967Z,33.20
2019-05-11T03:27:29.959Z,31.40
2019-05-11T03:28:29.920Z,32.30
2019-05-11T03:29:29.906Z,33.10
2019-05-11T03:30:29.882Z,31.80
2019-05-11T03:31:29.861Z,30.50
2019-05-11T03:32:29.841Z,30.20
2019-05-11T03:33:29.817Z,29.90
2019-05-11T03:34:29.796Z,28.90
2019-05-11T03:35:29.768Z,29.60
2019-05-11T03:36:29.747Z,28.80
2019-05-11T03:37:29.731Z,28.10
2019-05-11T03:38:29.701Z,28.40
2019-05-11T03:39:29.681Z,28.60
2019-05-11T03:40:29.665Z,28.80
2019-05-11T03:41:29.639Z,27.90
2019-05-11T03:42:29.616Z,27.50
2019-05-11T03:43:29.593Z,26.60
2019-05-11T03:44:29.572Z,26.40
2019-05-11T03:45:29.551Z,26.20
2019-05-11T03:46:29.526Z,26.10
2019-05-11T03:47:29.506Z,26.80
2019-05-11T03:48:29.483Z,25.20
2019-05-11T03:49:29.459Z,26.60
2019-05-11T03:50:29.439Z,24.70
2019-05-11T03:51:29.416Z,24.50
2019-05-11T03:52:29.398Z,23.60
2019-05-11T03:53:29.386Z,24.00
2019-05-11T03:54:29.359Z,23.90
2019-05-11T03:55:29.341Z,23.50
2019-05-11T03:56:29.310Z,25.80
2019-05-11T03:57:29.288Z,23.90
2019-05-11T03:58:29.262Z,24.00
2019-05-11T03:59:29.244Z,23.70
2019-05-11T04:00:29.233Z,23.50
2019-05-11T04:01:29.202Z,23.60
2019-05-11T04:02:29.191Z,21.30
2019-05-11T04:03:29.156Z,22.40
2019-05-11T04:04:29.130Z,22.80
2019-05-11T04:05:29.116Z,22.60
2019-05-11T04:06:29.099Z,22.00
2019-05-11T04:07:29.067Z,21.60
2019-05-11T04:08:29.044Z,19.70
2019-05-11T04:09:29.020Z,20.50
2019-05-11T04:10:28.999Z,21.60
2019-05-11T04:11:28.984Z,20.30
2019-05-11T04:12:34.593Z,21.40
2019-05-11T04:13:28.937Z,20.30
2019-05-11T04:14:28.910Z,20.40
2019-05-11T04:15:28.894Z,21.50
2019-05-11T04:16:28.866Z,20.70
2019-05-11T04:17:28.855Z,19.40
2019-05-11T04:18:28.825Z,18.50
2019-05-11T04:19:28.815Z,18.60
2019-05-11T04:20:28.786Z,20.60
2019-05-11T04:21:28.756Z,18.30
2019-05-11T04:22:28.782Z,19.90
2019-05-11T04:23:28.714Z,20.60
2019-05-11T04:24:28.695Z,18.70
2019-05-11T04:25:28.795Z,17.80
2019-05-11T04:26:28.656Z,17.60
2019-05-11T04:27:28.621Z,20.20
2019-05-11T04:28:28.612Z,18.90
2019-05-11T04:29:28.595Z,18.50
2019-05-11T04:30:28.556Z,17.50
2019-05-11T04:31:28.533Z,16.80
2019-05-11T04:32:28.522Z,18.60
2019-05-11T04:33:32.833Z,20.80
2019-05-11T04:34:28.478Z,16.50
2019-05-11T04:35:28.445Z,20.50
2019-05-11T04:36:28.422Z,17.60
2019-05-11T04:37:28.407Z,18.50
2019-05-11T04:38:28.379Z,18.80
2019-05-11T04:39:28.359Z,18.20
2019-05-11T04:40:28.333Z,18.80
2019-05-11T04:41:28.313Z,16.70
2019-05-11T04:42:28.312Z,19.40
2019-05-11T04:43:28.269Z,16.80
2019-05-11T04:44:28.245Z,19.50
2019-05-11T04:45:28.228Z,18.00
2019-05-11T04:46:28.199Z,19.70
2019-05-11T04:47:28.178Z,20.50
2019-05-11T04:48:28.157Z,22.00
2019-05-11T04:49:28.136Z,17.40
2019-05-11T04:50:28.112Z,21.20
2019-05-11T04:51:28.093Z,16.50
2019-05-11T04:52:28.072Z,19.40
2019-05-11T04:53:28.046Z,15.40
2019-05-11T04:54:28.022Z,18.20
2019-05-11T04:55:28.009Z,15.70
2019-05-11T04:56:27.977Z,17.40
2019-05-11T04:57:27.957Z,16.50
2019-05-11T04:58:27.941Z,18.00
2019-05-11T04:59:27.919Z,15.10
2019-05-11T05:00:27.889Z,16.30
2019-05-11T05:01:27.883Z,17.40
2019-05-11T05:02:27.843Z,17.50
2019-05-11T05:03:40.464Z,18.00
2019-05-11T05:04:27.808Z,19.00
2019-05-11T05:05:27.778Z,17.50
2019-05-11T05:06:27.758Z,17.20
2019-05-11T05:07:27.733Z,16.40
2019-05-11T05:08:28.073Z,15.90
2019-05-11T05:09:27.794Z,18.00
2019-05-11T05:10:27.667Z,15.80
2019-05-11T05:11:30.509Z,16.90
2019-05-11T05:12:27.623Z,15.80
2019-05-11T05:13:29.581Z,18.70
2019-05-11T05:14:27.579Z,15.30
2019-05-11T05:15:27.566Z,18.70
2019-05-11T05:16:31.184Z,16.50
2019-05-11T05:17:27.511Z,15.60
2019-05-11T05:18:27.488Z,18.50
2019-05-11T05:19:27.465Z,18.30
2019-05-11T05:20:27.445Z,17.70
2019-05-11T05:21:27.420Z,18.10
2019-05-11T05:22:28.059Z,16.60
2019-05-11T05:23:27.377Z,21.20
2019-05-11T05:24:27.367Z,16.40
2019-05-11T05:25:27.334Z,16.50
2019-05-11T05:26:27.310Z,17.10
2019-05-11T05:27:27.358Z,17.70
2019-05-11T05:28:27.291Z,17.00
2019-05-11T05:29:27.245Z,19.90
2019-05-11T05:30:27.221Z,22.30
2019-05-11T05:31:27.200Z,17.20
2019-05-11T05:32:27.193Z,16.60
2019-05-11T05:33:27.160Z,16.50
2019-05-11T05:34:27.132Z,18.30
2019-05-11T05:35:27.114Z,16.80
2019-05-11T05:36:27.089Z,16.40
2019-05-11T05:37:27.067Z,16.20
2019-05-11T05:38:27.044Z,20.90
2019-05-11T05:39:27.026Z,16.10
2019-05-11T05:40:27.001Z,17.00
2019-05-11T05:41:26.981Z,15.00
2019-05-11T05:42:26.952Z,18.80
2019-05-11T05:43:28.564Z,18.90
2019-05-11T05:44:27.821Z,16.90
2019-05-11T05:45:26.888Z,16.70
2019-05-11T05:46:26.874Z,18.50
2019-05-11T05:47:26.846Z,18.10
2019-05-11T05:48:26.823Z,16.80
2019-05-11T05:49:26.806Z,15.80
2019-05-11T05:50:26.785Z,19.60
2019-05-11T05:51:26.774Z,17.70
2019-05-11T05:52:26.736Z,18.50
2019-05-11T05:53:26.714Z,20.90
2019-05-11T05:54:26.694Z,16.10
2019-05-11T05:55:26.671Z,14.60
2019-05-11T05:56:26.647Z,18.40
2019-05-11T05:57:26.625Z,15.90
2019-05-11T05:58:26.606Z,18.90
2019-05-11T05:59:26.580Z,16.00
2019-05-11T06:00:26.574Z,19.20
2019-05-11T06:01:26.535Z,16.30
2019-05-11T06:02:26.517Z,17.40
2019-05-11T06:03:26.490Z,15.90
2019-05-11T06:04:26.468Z,18.20
2019-05-11T06:05:26.446Z,15.50
2019-05-11T06:06:26.422Z,18.00
2019-05-11T06:07:26.421Z,17.40
2019-05-11T06:08:26.383Z,18.10
2019-05-11T06:09:26.367Z,15.80
2019-05-11T06:10:26.335Z,17.00
2019-05-11T06:11:26.316Z,16.80
2019-05-11T06:12:26.295Z,15.70
2019-05-11T06:13:42.762Z,16.60
2019-05-11T06:14:26.251Z,16.70
2019-05-11T06:15:26.225Z,16.80
2019-05-11T06:16:26.221Z,17.00
2019-05-11T06:17:26.192Z,18.20
2019-05-11T06:18:26.156Z,17.30
2019-05-11T06:19:26.136Z,18.00
2019-05-11T06:20:26.117Z,17.20
2019-05-11T06:21:26.092Z,15.40
2019-05-11T06:22:26.069Z,20.80
2019-05-11T06:23:26.047Z,17.20
2019-05-11T06:24:26.027Z,17.20
2019-05-11T06:25:26.006Z,19.50
2019-05-11T06:26:25.995Z,16.60
2019-05-11T06:27:25.958Z,19.20
2019-05-11T06:28:25.940Z,16.30
2019-05-11T06:29:25.916Z,16.90
2019-05-11T06:30:25.896Z,18.30
2019-05-11T06:31:25.871Z,16.20
2019-05-11T06:32:25.853Z,19.10
2019-05-11T06:33:25.832Z,16.00
2019-05-11T06:34:25.804Z,15.90
2019-05-11T06:35:25.782Z,16.90
2019-05-11T06:36:25.761Z,17.90
2019-05-11T06:37:25.741Z,15.70
2019-05-11T06:38:25.723Z,16.90
2019-05-11T06:39:25.710Z,15.60
2019-05-11T06:40:28.511Z,17.90
2019-05-11T06:41:25.651Z,17.80
2019-05-11T06:42:25.627Z,17.90
2019-05-11T06:43:25.604Z,19.10
2019-05-11T06:44:25.584Z,18.30
2019-05-11T06:45:25.566Z,20.80
2019-05-11T06:46:25.545Z,15.80
2019-05-11T06:47:25.519Z,20.30
2019-05-11T06:48:25.496Z,16.30
2019-05-11T06:49:25.474Z,16.70
2019-05-11T06:50:25.523Z,16.00
2019-05-11T06:51:25.430Z,18.20
2019-05-11T06:52:25.418Z,18.30
2019-05-11T06:53:25.387Z,17.80
2019-05-11T06:54:25.369Z,16.10
2019-05-11T06:55:25.347Z,15.20
2019-05-11T06:56:25.321Z,15.30
2019-05-11T06:57:25.300Z,17.80
2019-05-11T06:58:25.276Z,17.70
2019-05-11T06:59:25.255Z,15.60
2019-05-11T07:00:25.242Z,14.80
2019-05-11T07:01:25.214Z,16.70
2019-05-11T07:02:25.188Z,15.50
2019-05-11T07:03:25.166Z,15.60
2019-05-11T07:04:25.146Z,16.90
2019-05-11T07:05:25.129Z,16.00
2019-05-11T07:06:28.195Z,16.90
2019-05-11T07:07:25.083Z,16.40
2019-05-11T07:08:25.056Z,15.20
2019-05-11T07:09:25.033Z,20.70
2019-05-11T07:10:25.013Z,17.10
2019-05-11T07:11:24.987Z,14.90
2019-05-11T07:12:27.580Z,16.40
2019-05-11T07:13:24.944Z,18.00
2019-05-11T07:14:24.924Z,14.50
2019-05-11T07:15:24.901Z,15.00
2019-05-11T07:16:24.881Z,16.60
2019-05-11T07:17:24.863Z,14.40
2019-05-11T07:18:24.836Z,15.70
2019-05-11T07:19:24.817Z,15.30
2019-05-11T07:20:24.792Z,15.20
2019-05-11T07:21:24.770Z,14.50
2019-05-11T07:22:24.746Z,16.40
2019-05-11T07:23:24.737Z,15.30
2019-05-11T07:24:24.701Z,15.20
2019-05-11T07:25:24.699Z,17.10
2019-05-11T07:26:24.665Z,14.80
2019-05-11T07:27:24.637Z,14.40
2019-05-11T07:28:24.626Z,17.60
2019-05-11T07:29:24.593Z,14.80
2019-05-11T07:30:24.573Z,15.40
2019-05-11T07:31:24.553Z,18.20
2019-05-11T07:32:26.070Z,15.00
2019-05-11T07:33:24.507Z,15.90
2019-05-11T07:34:24.485Z,15.70
2019-05-11T07:35:24.461Z,16.90
2019-05-11T07:36:24.440Z,16.70
2019-05-11T07:37:24.582Z,16.20
2019-05-11T07:38:24.394Z,16.70
2019-05-11T07:39:24.373Z,15.90
2019-05-11T07:40:24.354Z,17.10
2019-05-11T07:41:24.331Z,16.90
2019-05-11T07:42:24.316Z,15.70
2019-05-11T07:43:24.289Z,15.90
2019-05-11T07:44:35.892Z,18.40
2019-05-11T07:45:24.246Z,16.50
2019-05-11T07:46:24.221Z,16.70
2019-05-11T07:47:24.208Z,16.10
2019-05-11T07:48:24.185Z,18.00
2019-05-11T07:49:24.157Z,20.10
2019-05-11T07:50:24.145Z,16.70
2019-05-11T07:51:24.111Z,16.40
2019-05-11T07:52:24.092Z,16.90
2019-05-11T07:53:24.070Z,19.30
2019-05-11T07:54:24.050Z,16.90
2019-05-11T07:55:24.024Z,17.20
2019-05-11T07:56:24.006Z,16.00
2019-05-11T07:57:23.987Z,18.20
2019-05-11T07:58:23.969Z,16.00
2019-05-11T07:59:23.942Z,16.70
2019-05-11T08:00:23.917Z,17.00
2019-05-11T08:01:23.903Z,17.50
2019-05-11T08:02:23.879Z,16.90
2019-05-11T08:03:23.851Z,17.00
2019-05-11T08:04:23.830Z,20.20
2019-05-11T08:05:23.815Z,17.30
2019-05-11T08:06:23.787Z,16.80
2019-05-11T08:07:23.765Z,17.50
2019-05-11T08:08:25.204Z,19.40
2019-05-11T08:09:23.732Z,16.40
2019-05-11T08:10:23.718Z,18.10
2019-05-11T08:11:23.682Z,16.80
2019-05-11T08:12:23.658Z,16.70
2019-05-11T08:13:23.639Z,18.00
2019-05-11T08:14:23.618Z,18.00
2019-05-11T08:15:23.601Z,20.30
2019-05-11T08:16:23.572Z,16.90
2019-05-11T08:17:23.550Z,17.80
2019-05-11T08:18:23.532Z,17.00
2019-05-11T08:19:23.505Z,18.10
2019-05-11T08:20:23.486Z,17.90
2019-05-11T08:21:23.466Z,17.00
2019-05-11T08:22:23.442Z,16.40
2019-05-11T08:23:23.429Z,15.40
2019-05-11T08:24:23.407Z,18.00
2019-05-11T08:25:23.383Z,15.30
2019-05-11T08:26:23.356Z,15.00
2019-05-11T08:27:23.334Z,17.90
2019-05-11T08:28:23.314Z,15.80
2019-05-11T08:29:23.292Z,17.20
2019-05-11T08:30:23.275Z,14.20
2019-05-11T08:31:23.258Z,15.70
2019-05-11T08:32:23.230Z,18.90
2019-05-11T08:33:23.209Z,19.70
2019-05-11T08:34:23.192Z,19.40
2019-05-11T08:35:23.165Z,16.80
2019-05-11T08:36:23.151Z,16.60
2019-05-11T08:37:23.123Z,17.00
2019-05-11T08:38:23.113Z,19.20
2019-05-11T08:39:23.089Z,16.20
2019-05-11T08:40:23.059Z,19.40
2019-05-11T08:41:23.041Z,17.10
2019-05-11T08:42:23.029Z,16.60
2019-05-11T08:43:22.993Z,17.80
2019-05-11T08:44:22.973Z,15.70
2019-05-11T08:45:24.718Z,16.90
2019-05-11T08:46:22.937Z,18.30
2019-05-11T08:47:22.912Z,18.00
2019-05-11T08:48:22.901Z,18.40
2019-05-11T08:49:22.878Z,17.00
2019-05-11T08:50:22.844Z,17.60
2019-05-11T08:51:22.822Z,16.40
2019-05-11T08:52:22.802Z,17.90
2019-05-11T08:53:22.794Z,17.70
2019-05-11T08:54:22.758Z,17.20
2019-05-11T08:55:22.743Z,18.30
2019-05-11T08:56:22.714Z,17.80
2019-05-11T08:57:22.700Z,17.90
2019-05-11T08:58:22.675Z,17.20
2019-05-11T08:59:22.648Z,15.80
2019-05-11T09:00:22.631Z,15.10
2019-05-11T09:01:22.610Z,16.50
2019-05-11T09:02:22.583Z,14.90
2019-05-11T09:03:22.564Z,16.30
2019-05-11T09:04:22.546Z,17.50
2019-05-11T09:05:22.519Z,15.80
2019-05-11T09:06:22.508Z,18.30
2019-05-11T09:07:22.476Z,19.50
2019-05-11T09:08:22.462Z,16.30
2019-05-11T09:09:22.437Z,16.10
2019-05-11T09:10:22.412Z,16.90
2019-05-11T09:11:22.391Z,14.90
2019-05-11T09:12:22.376Z,19.30
2019-05-11T09:13:22.360Z,16.20
2019-05-11T09:14:22.335Z,16.90
2019-05-11T09:15:33.726Z,15.40
2019-05-11T09:16:22.291Z,18.40
2019-05-11T09:17:22.260Z,14.90
2019-05-11T09:18:22.241Z,17.20
2019-05-11T09:19:22.223Z,14.20
2019-05-11T09:20:22.198Z,13.60
2019-05-11T09:21:22.176Z,18.10
2019-05-11T09:22:22.155Z,14.00
2019-05-11T09:23:33.534Z,16.20
2019-05-11T09:24:22.110Z,15.90
2019-05-11T09:25:22.101Z,15.10
2019-05-11T09:26:22.067Z,14.30
2019-05-11T09:27:22.045Z,16.00
2019-05-11T09:28:22.023Z,16.40
2019-05-11T09:29:22.020Z,16.30
2019-05-11T09:30:21.992Z,16.20
2019-05-11T09:31:21.961Z,13.80
2019-05-11T09:32:21.938Z,14.90
2019-05-11T09:33:21.919Z,15.50
2019-05-11T09:34:21.897Z,14.10
2019-05-11T09:35:21.882Z,13.00
2019-05-11T09:36:21.918Z,14.00
2019-05-11T09:37:21.836Z,12.90
2019-05-11T09:38:21.810Z,11.70
2019-05-11T09:39:21.794Z,12.40
2019-05-11T09:40:21.768Z,13.00
2019-05-11T09:41:21.745Z,9.80
2019-05-11T09:42:21.725Z,11.50
2019-05-11T09:43:21.707Z,12.50
2019-05-11T09:44:21.685Z,10.30
2019-05-11T09:45:21.662Z,12.00
2019-05-11T09:46:21.645Z,11.30
2019-05-11T09:47:21.619Z,14.00
2019-05-11T09:48:21.599Z,10.70
2019-05-11T09:49:21.584Z,10.90
2019-05-11T09:50:21.559Z,11.00
2019-05-11T09:51:21.533Z,12.60
2019-05-11T09:52:21.521Z,12.40
2019-05-11T09:53:21.505Z,10.80
2019-05-11T09:54:21.475Z,15.10
2019-05-11T09:55:21.452Z,10.70
2019-05-11T09:56:21.435Z,10.20
2019-05-11T09:57:21.413Z,11.80
2019-05-11T09:58:21.389Z,11.60
2019-05-11T09:59:21.363Z,9.60
2019-05-11T10:00:21.347Z,9.80
2019-05-11T10:01:21.323Z,11.90
2019-05-11T10:02:21.335Z,12.20
2019-05-11T10:03:21.279Z,12.10
2019-05-11T10:04:21.258Z,12.30
2019-05-11T10:05:21.238Z,10.00
2019-05-11T10:06:21.215Z,11.90
2019-05-11T10:07:21.199Z,13.70
2019-05-11T10:08:21.171Z,13.10
2019-05-11T10:09:21.158Z,11.20
2019-05-11T10:10:21.130Z,11.90
2019-05-11T10:11:21.109Z,11.70
2019-05-11T10:12:21.096Z,14.00
2019-05-11T10:13:21.075Z,13.30
2019-05-11T10:14:21.050Z,12.30
2019-05-11T10:15:21.023Z,14.80
2019-05-11T10:16:21.001Z,12.50
2019-05-11T10:17:20.992Z,12.80
2019-05-11T10:18:24.129Z,15.00
2019-05-11T10:19:20.940Z,12.90
2019-05-11T10:20:20.923Z,12.50
2019-05-11T10:21:20.896Z,12.30
2019-05-11T10:22:20.876Z,13.70
2019-05-11T10:23:20.852Z,13.50
2019-05-11T10:24:20.843Z,12.40
2019-05-11T10:25:20.820Z,12.50
2019-05-11T10:26:20.798Z,13.50
2019-05-11T10:27:20.767Z,11.80
2019-05-11T10:28:20.746Z,11.40
2019-05-11T10:29:20.732Z,15.00
2019-05-11T10:30:20.708Z,14.30
2019-05-11T10:31:20.683Z,13.20
2019-05-11T10:32:20.668Z,14.20
2019-05-11T10:33:20.641Z,14.50
2019-05-11T10:34:20.620Z,13.10
2019-05-11T10:35:20.615Z,13.30
2019-05-11T10:36:20.582Z,14.50
2019-05-11T10:37:20.555Z,12.20
2019-05-11T10:38:20.539Z,14.40
2019-05-11T10:39:20.535Z,11.00
2019-05-11T10:40:20.492Z,12.20
2019-05-11T10:41:20.472Z,11.00
2019-05-11T10:42:20.447Z,13.30
2019-05-11T10:43:20.425Z,11.60
2019-05-11T10:44:20.405Z,11.90
2019-05-11T10:45:20.384Z,13.20
2019-05-11T10:46:23.588Z,12.80
2019-05-11T10:47:20.349Z,15.80
2019-05-11T10:48:20.321Z,13.30
2019-05-11T10:49:20.310Z,13.60
2019-05-11T10:50:20.313Z,11.60
2019-05-11T10:51:20.280Z,14.60
2019-05-11T10:52:20.260Z,13.20
2019-05-11T10:53:20.219Z,11.50
2019-05-11T10:54:20.193Z,13.20
2019-05-11T10:55:20.177Z,12.10
2019-05-11T10:56:20.146Z,11.80
2019-05-11T10:57:20.127Z,10.30
2019-05-11T10:58:20.106Z,11.20
2019-05-11T10:59:20.094Z,11.60
2019-05-11T11:00:20.065Z,10.40
2019-05-11T11:01:20.056Z,10.40
2019-05-11T11:02:20.022Z,8.70
2019-05-11T11:03:20.005Z,9.60
2019-05-11T11:04:19.985Z,9.80
2019-05-11T11:05:19.961Z,9.00
2019-05-11T11:06:19.937Z,13.60
2019-05-11T11:07:19.920Z,7.90
2019-05-11T11:08:19.905Z,13.20
2019-05-11T11:09:19.875Z,10.20
2019-05-11T11:10:19.855Z,9.50
2019-05-11T11:11:19.831Z,9.90
2019-05-11T11:12:19.818Z,7.90
2019-05-11T11:13:19.795Z,9.80
2019-05-11T11:14:19.774Z,9.90
2019-05-11T11:15:19.749Z,11.80
2019-05-11T11:16:35.054Z,8.90
2019-05-11T11:17:19.713Z,10.40
2019-05-11T11:18:19.685Z,9.50
2019-05-11T11:19:19.678Z,9.00
2019-05-11T11:20:19.654Z,9.70
2019-05-11T11:21:22.782Z,11.20
2019-05-11T11:22:35.998Z,11.50
2019-05-11T11:23:19.584Z,9.30
2019-05-11T11:24:19.607Z,10.90
2019-05-11T11:25:19.538Z,11.80
2019-05-11T11:26:19.517Z,10.50
2019-05-11T11:27:19.500Z,8.90
2019-05-11T11:28:19.476Z,8.70
2019-05-11T11:29:19.468Z,10.50
2019-05-11T11:30:19.436Z,9.50
2019-05-11T11:31:19.414Z,9.80
2019-05-11T11:32:19.391Z,9.90
2019-05-11T11:33:19.371Z,9.00
2019-05-11T11:34:19.349Z,11.90
2019-05-11T11:35:19.329Z,10.90
2019-05-11T11:36:19.316Z,13.60
2019-05-11T11:37:19.283Z,9.60
2019-05-11T11:38:19.269Z,12.60
2019-05-11T11:39:19.249Z,11.00
2019-05-11T11:40:19.219Z,9.60
2019-05-11T11:41:19.200Z,9.50
2019-05-11T11:42:19.185Z,10.30
2019-05-11T11:43:19.155Z,9.40
2019-05-11T11:44:19.138Z,8.40
2019-05-11T11:45:19.114Z,9.60
2019-05-11T11:46:19.092Z,11.20
2019-05-11T11:47:21.763Z,10.60
2019-05-11T11:48:19.157Z,9.80
2019-05-11T11:49:19.155Z,8.60
2019-05-11T11:50:19.007Z,7.50
2019-05-11T11:51:19.094Z,8.70
2019-05-11T11:52:18.964Z,9.80
2019-05-11T11:53:18.979Z,8.30
2019-05-11T11:54:18.926Z,9.70
2019-05-11T11:55:18.941Z,9.50
2019-05-11T11:56:19.361Z,10.30
2019-05-11T11:57:18.859Z,9.60
2019-05-11T11:58:23.549Z,8.80
2019-05-11T11:59:18.821Z,10.20
2019-05-11T12:00:18.792Z,10.10
2019-05-11T12:01:19.184Z,9.30
2019-05-11T12:02:19.228Z,11.10
2019-05-11T12:03:18.730Z,9.60
2019-05-11T12:04:18.933Z,8.30
2019-05-11T12:05:18.693Z,9.30
2019-05-11T12:06:18.690Z,8.80
2019-05-11T12:07:18.649Z,10.10
2019-05-11T12:08:19.023Z,10.90
2019-05-11T12:09:18.605Z,8.40
2019-05-11T12:10:18.591Z,11.20
2019-05-11T12:11:18.997Z,7.80
2019-05-11T12:12:18.714Z,12.00
2019-05-11T12:13:18.855Z,8.10
2019-05-11T12:14:18.827Z,8.90
2019-05-11T12:15:18.474Z,8.30
2019-05-11T12:16:18.457Z,8.50
2019-05-11T12:17:18.437Z,10.00
2019-05-11T12:18:18.595Z,9.70
2019-05-11T12:19:18.835Z,10.30
2019-05-11T12:20:18.399Z,8.40
2019-05-11T12:21:18.804Z,8.70
2019-05-11T12:22:18.925Z,9.60
2019-05-11T12:23:18.313Z,10.10
2019-05-11T12:24:18.841Z,8.70
2019-05-11T12:25:18.692Z,7.80
2019-05-11T12:26:18.250Z,10.10
2019-05-11T12:27:18.402Z,11.90
2019-05-11T12:28:18.522Z,12.60
2019-05-11T12:29:18.967Z,8.60
2019-05-11T12:30:18.164Z,11.10
2019-05-11T12:31:18.650Z,10.30
2019-05-11T12:32:18.623Z,12.60
2019-05-11T12:33:18.791Z,12.50
2019-05-11T12:34:18.158Z,12.70
2019-05-11T12:35:18.133Z,9.10
2019-05-11T12:36:18.743Z,8.10
2019-05-11T12:37:18.082Z,13.60
2019-05-11T12:38:18.444Z,12.70
2019-05-11T12:39:19.167Z,12.40
2019-05-11T12:40:18.181Z,9.80
2019-05-11T12:41:18.955Z,10.20
2019-05-11T12:42:18.084Z,11.00
2019-05-11T12:43:18.548Z,11.50
2019-05-11T12:44:18.785Z,9.10
2019-05-11T12:45:18.278Z,11.60
2019-05-11T12:46:18.962Z,13.10
2019-05-11T12:47:24.704Z,12.70
2019-05-11T12:48:18.185Z,10.60
2019-05-11T12:49:18.621Z,9.80
2019-05-11T12:50:18.688Z,11.10
2019-05-11T12:51:18.561Z,11.30
2019-05-11T12:52:18.517Z,12.00
2019-05-11T12:53:18.588Z,9.80
2019-05-11T12:54:18.697Z,8.00